Portada
METAR-TAF:

METAR-TAF

Aeroports :

Khartum, Sudan

latitud: 15-36N, longitud: 032-33E, altitud: 382 m

Observació

L'informe es va fer fa 30 minuts, a les 02:00 UTC
Vent 4 kt del Nord
Temperatura 26°C
Humitat 26%
Pressió 1006 hPa
Visibilitat 10 km o més
sense núvols per sota de 1500 mi sense presència de cumulonimbus.

METAR: HSSS 240200Z 35004KT CAVOK 26/05 Q1006 NOSIG

Hora: 05:30 (02:30 UTC)

Pronòstic

L'informe es va fer fa 3 hores i 30 minuts, a les 23:00 UTC
Pronòstic vàlid del 24 a les 00 UTC al 25 a les 06 UTC
Vent 6 kt del Nord/Nord-Est
Visibilitat 10 km o més
sense núvols per sota de 1500 mi sense presència de cumulonimbus.
Temporalment
l' 24 a les 03 UTC al 24 a les 08 UTC
Visibilitat: 5000 m
calitja

TAF: HSSS 232300Z 2400/2506 02006KT CAVOK TEMPO 2403/2408 5000 HZ

Observacions i pronòstics meteorològics de més de 4000 aeroports (METAR i TAF).

Les estacions disponibles són els punts grocs i vermells al mapa.

Posi el ratolí al punt desitjat per veure el nom de l'estació.

Feu clic per veure les observacions i els pronòstics meteorològics.

Per canviar el mapa: feu clic els botons verds amb una creu de color negre per apropar; al botó verd amb un guió per allunyar la imatge; o en les fletxes verdes per a mapes adjacents.


METAR-TAF: